sensor_id;sensor_type;location;lat;lon;timestamp;P1;durP1;ratioP1;P2;durP2;ratioP2
11998;SDS011;40817;51.520;9.954;2022-11-25T00:01:20;10.00;;;1.98;;
11998;SDS011;40817;51.520;9.954;2022-11-25T00:03:53;8.40;;;2.67;;
11998;SDS011;40817;51.520;9.954;2022-11-25T00:06:24;11.73;;;2.13;;
11998;SDS011;40817;51.520;9.954;2022-11-25T00:08:54;6.68;;;2.15;;
11998;SDS011;40817;51.520;9.954;2022-11-25T00:11:30;8.32;;;1.98;;
11998;SDS011;40817;51.520;9.954;2022-11-25T00:14:01;8.10;;;1.45;;
11998;SDS011;40817;51.520;9.954;2022-11-25T00:16:29;9.35;;;2.08;;
11998;SDS011;40817;51.520;9.954;2022-11-25T00:18:59;11.20;;;1.70;;
11998;SDS011;40817;51.520;9.954;2022-11-25T00:21:28;9.82;;;2.58;;
11998;SDS011;40817;51.520;9.954;2022-11-25T00:23:59;7.50;;;1.80;;
11998;SDS011;40817;51.520;9.954;2022-11-25T00:26:31;11.20;;;2.95;;
11998;SDS011;40817;51.520;9.954;2022-11-25T00:29:01;8.95;;;1.83;;
11998;SDS011;40817;51.520;9.954;2022-11-25T00:31:33;9.13;;;1.90;;
11998;SDS011;40817;51.520;9.954;2022-11-25T00:34:06;8.00;;;2.00;;
11998;SDS011;40817;51.520;9.954;2022-11-25T00:36:38;7.93;;;2.15;;
11998;SDS011;40817;51.520;9.954;2022-11-25T00:39:08;9.57;;;2.05;;
11998;SDS011;40817;51.520;9.954;2022-11-25T00:41:39;14.13;;;2.05;;
11998;SDS011;40817;51.520;9.954;2022-11-25T00:44:24;9.40;;;2.13;;
11998;SDS011;40817;51.520;9.954;2022-11-25T00:47:02;8.02;;;1.77;;
11998;SDS011;40817;51.520;9.954;2022-11-25T00:49:34;11.95;;;2.30;;
11998;SDS011;40817;51.520;9.954;2022-11-25T00:52:03;10.57;;;1.88;;
11998;SDS011;40817;51.520;9.954;2022-11-25T00:54:32;9.13;;;2.10;;
11998;SDS011;40817;51.520;9.954;2022-11-25T00:57:00;9.40;;;2.67;;
11998;SDS011;40817;51.520;9.954;2022-11-25T00:59:28;10.15;;;2.05;;
11998;SDS011;40817;51.520;9.954;2022-11-25T01:01:56;10.90;;;2.22;;
11998;SDS011;40817;51.520;9.954;2022-11-25T01:04:24;11.38;;;2.08;;
11998;SDS011;40817;51.520;9.954;2022-11-25T01:06:53;10.23;;;1.80;;
11998;SDS011;40817;51.520;9.954;2022-11-25T01:09:24;8.95;;;2.20;;
11998;SDS011;40817;51.520;9.954;2022-11-25T01:11:53;10.77;;;2.08;;
11998;SDS011;40817;51.520;9.954;2022-11-25T01:14:22;9.27;;;2.67;;
11998;SDS011;40817;51.520;9.954;2022-11-25T01:16:50;7.70;;;2.55;;
11998;SDS011;40817;51.520;9.954;2022-11-25T01:19:18;15.02;;;3.15;;
11998;SDS011;40817;51.520;9.954;2022-11-25T01:21:47;8.90;;;1.75;;
11998;SDS011;40817;51.520;9.954;2022-11-25T01:24:16;5.80;;;2.00;;
11998;SDS011;40817;51.520;9.954;2022-11-25T01:26:44;9.07;;;2.70;;
11998;SDS011;40817;51.520;9.954;2022-11-25T01:29:22;9.27;;;1.88;;
11998;SDS011;40817;51.520;9.954;2022-11-25T01:31:50;10.35;;;2.58;;
11998;SDS011;40817;51.520;9.954;2022-11-25T01:34:22;8.25;;;2.30;;
11998;SDS011;40817;51.520;9.954;2022-11-25T01:36:52;13.07;;;1.98;;
11998;SDS011;40817;51.520;9.954;2022-11-25T01:39:22;9.25;;;2.78;;
11998;SDS011;40817;51.520;9.954;2022-11-25T01:41:51;9.93;;;3.70;;
11998;SDS011;40817;51.520;9.954;2022-11-25T01:44:20;10.52;;;2.58;;
11998;SDS011;40817;51.520;9.954;2022-11-25T01:46:54;7.60;;;2.08;;
11998;SDS011;40817;51.520;9.954;2022-11-25T01:49:34;10.00;;;2.20;;
11998;SDS011;40817;51.520;9.954;2022-11-25T01:52:11;22.52;;;2.78;;
11998;SDS011;40817;51.520;9.954;2022-11-25T01:54:48;7.13;;;2.53;;
11998;SDS011;40817;51.520;9.954;2022-11-25T01:57:23;11.30;;;2.45;;
11998;SDS011;40817;51.520;9.954;2022-11-25T01:59:58;8.52;;;1.83;;
11998;SDS011;40817;51.520;9.954;2022-11-25T02:02:29;8.93;;;2.03;;
11998;SDS011;40817;51.520;9.954;2022-11-25T02:04:57;7.65;;;2.35;;
11998;SDS011;40817;51.520;9.954;2022-11-25T02:07:35;8.18;;;2.38;;
11998;SDS011;40817;51.520;9.954;2022-11-25T02:10:09;11.90;;;2.38;;
11998;SDS011;40817;51.520;9.954;2022-11-25T02:12:42;11.30;;;2.50;;
11998;SDS011;40817;51.520;9.954;2022-11-25T02:15:12;6.20;;;2.35;;
11998;SDS011;40817;51.520;9.954;2022-11-25T02:17:41;11.68;;;2.10;;
11998;SDS011;40817;51.520;9.954;2022-11-25T02:20:10;10.00;;;2.47;;
11998;SDS011;40817;51.520;9.954;2022-11-25T02:22:46;14.80;;;3.20;;
11998;SDS011;40817;51.520;9.954;2022-11-25T02:25:27;10.45;;;3.00;;
11998;SDS011;40817;51.520;9.954;2022-11-25T02:27:59;14.23;;;2.63;;
11998;SDS011;40817;51.520;9.954;2022-11-25T02:30:33;10.23;;;2.15;;
11998;SDS011;40817;51.520;9.954;2022-11-25T02:33:01;9.68;;;2.33;;
11998;SDS011;40817;51.520;9.954;2022-11-25T02:35:31;12.35;;;2.17;;
11998;SDS011;40817;51.520;9.954;2022-11-25T02:38:04;9.50;;;2.40;;
11998;SDS011;40817;51.520;9.954;2022-11-25T02:40:42;9.63;;;2.30;;
11998;SDS011;40817;51.520;9.954;2022-11-25T02:43:14;7.88;;;2.85;;
11998;SDS011;40817;51.520;9.954;2022-11-25T02:45:46;11.93;;;2.50;;
11998;SDS011;40817;51.520;9.954;2022-11-25T02:48:23;10.20;;;2.70;;
11998;SDS011;40817;51.520;9.954;2022-11-25T02:50:51;9.85;;;2.47;;
11998;SDS011;40817;51.520;9.954;2022-11-25T02:53:20;10.45;;;2.90;;
11998;SDS011;40817;51.520;9.954;2022-11-25T02:55:49;8.23;;;2.40;;
11998;SDS011;40817;51.520;9.954;2022-11-25T02:58:17;11.68;;;2.47;;
11998;SDS011;40817;51.520;9.954;2022-11-25T03:00:46;10.77;;;3.33;;
11998;SDS011;40817;51.520;9.954;2022-11-25T03:03:14;14.25;;;2.80;;
11998;SDS011;40817;51.520;9.954;2022-11-25T03:05:42;13.80;;;2.58;;
11998;SDS011;40817;51.520;9.954;2022-11-25T03:08:10;18.02;;;3.08;;
11998;SDS011;40817;51.520;9.954;2022-11-25T03:10:38;8.73;;;2.67;;
11998;SDS011;40817;51.520;9.954;2022-11-25T03:13:08;8.25;;;1.80;;
11998;SDS011;40817;51.520;9.954;2022-11-25T03:15:36;10.55;;;2.67;;
11998;SDS011;40817;51.520;9.954;2022-11-25T03:18:05;14.15;;;2.72;;
11998;SDS011;40817;51.520;9.954;2022-11-25T03:20:33;11.63;;;2.80;;
11998;SDS011;40817;51.520;9.954;2022-11-25T03:23:03;11.98;;;3.03;;
11998;SDS011;40817;51.520;9.954;2022-11-25T03:25:33;9.55;;;2.70;;
11998;SDS011;40817;51.520;9.954;2022-11-25T03:28:02;11.50;;;2.80;;
11998;SDS011;40817;51.520;9.954;2022-11-25T03:30:32;11.18;;;2.10;;
11998;SDS011;40817;51.520;9.954;2022-11-25T03:33:00;9.15;;;2.90;;
11998;SDS011;40817;51.520;9.954;2022-11-25T03:35:27;10.25;;;2.40;;
11998;SDS011;40817;51.520;9.954;2022-11-25T03:37:55;14.07;;;3.25;;
11998;SDS011;40817;51.520;9.954;2022-11-25T03:40:24;9.93;;;2.88;;
11998;SDS011;40817;51.520;9.954;2022-11-25T03:42:52;13.82;;;2.42;;
11998;SDS011;40817;51.520;9.954;2022-11-25T03:45:20;9.18;;;2.47;;
11998;SDS011;40817;51.520;9.954;2022-11-25T03:47:49;10.30;;;2.78;;
11998;SDS011;40817;51.520;9.954;2022-11-25T03:50:17;8.13;;;2.60;;
11998;SDS011;40817;51.520;9.954;2022-11-25T03:52:45;10.52;;;2.22;;
11998;SDS011;40817;51.520;9.954;2022-11-25T03:55:12;15.07;;;2.90;;
11998;SDS011;40817;51.520;9.954;2022-11-25T03:57:41;10.60;;;2.50;;
11998;SDS011;40817;51.520;9.954;2022-11-25T04:00:09;13.93;;;2.53;;
11998;SDS011;40817;51.520;9.954;2022-11-25T04:02:39;8.43;;;1.73;;
11998;SDS011;40817;51.520;9.954;2022-11-25T04:05:08;10.13;;;2.33;;
11998;SDS011;40817;51.520;9.954;2022-11-25T04:07:36;10.90;;;2.45;;
11998;SDS011;40817;51.520;9.954;2022-11-25T04:10:05;14.60;;;2.60;;
11998;SDS011;40817;51.520;9.954;2022-11-25T04:12:35;11.73;;;2.17;;
11998;SDS011;40817;51.520;9.954;2022-11-25T04:15:15;10.77;;;2.33;;
11998;SDS011;40817;51.520;9.954;2022-11-25T04:17:45;13.30;;;2.85;;
11998;SDS011;40817;51.520;9.954;2022-11-25T04:20:14;5.78;;;1.98;;
11998;SDS011;40817;51.520;9.954;2022-11-25T04:22:43;9.93;;;2.10;;
11998;SDS011;40817;51.520;9.954;2022-11-25T04:25:11;7.95;;;1.77;;
11998;SDS011;40817;51.520;9.954;2022-11-25T04:27:39;10.40;;;2.10;;
11998;SDS011;40817;51.520;9.954;2022-11-25T04:30:07;10.50;;;2.58;;
11998;SDS011;40817;51.520;9.954;2022-11-25T04:32:37;11.00;;;2.67;;
11998;SDS011;40817;51.520;9.954;2022-11-25T04:35:05;8.07;;;2.00;;
11998;SDS011;40817;51.520;9.954;2022-11-25T04:37:35;11.10;;;2.42;;
11998;SDS011;40817;51.520;9.954;2022-11-25T04:40:04;5.72;;;2.60;;
11998;SDS011;40817;51.520;9.954;2022-11-25T04:42:34;8.68;;;2.92;;
11998;SDS011;40817;51.520;9.954;2022-11-25T04:45:18;8.00;;;2.47;;
11998;SDS011;40817;51.520;9.954;2022-11-25T04:47:46;8.35;;;2.83;;
11998;SDS011;40817;51.520;9.954;2022-11-25T04:50:15;7.13;;;3.05;;
11998;SDS011;40817;51.520;9.954;2022-11-25T04:52:48;11.18;;;2.17;;
11998;SDS011;40817;51.520;9.954;2022-11-25T04:55:16;11.40;;;2.30;;
11998;SDS011;40817;51.520;9.954;2022-11-25T04:57:44;6.18;;;2.42;;
11998;SDS011;40817;51.520;9.954;2022-11-25T05:00:18;9.75;;;2.53;;
11998;SDS011;40817;51.520;9.954;2022-11-25T05:02:54;8.13;;;2.25;;
11998;SDS011;40817;51.520;9.954;2022-11-25T05:05:22;8.35;;;2.60;;
11998;SDS011;40817;51.520;9.954;2022-11-25T05:07:52;12.57;;;2.92;;
11998;SDS011;40817;51.520;9.954;2022-11-25T05:10:20;8.70;;;3.58;;
11998;SDS011;40817;51.520;9.954;2022-11-25T05:12:48;7.72;;;2.65;;
11998;SDS011;40817;51.520;9.954;2022-11-25T05:15:16;9.15;;;2.78;;
11998;SDS011;40817;51.520;9.954;2022-11-25T05:17:44;11.63;;;3.38;;
11998;SDS011;40817;51.520;9.954;2022-11-25T05:20:12;11.20;;;3.03;;
11998;SDS011;40817;51.520;9.954;2022-11-25T05:22:39;9.45;;;2.03;;
11998;SDS011;40817;51.520;9.954;2022-11-25T05:25:09;11.40;;;2.05;;
11998;SDS011;40817;51.520;9.954;2022-11-25T05:27:46;6.80;;;2.28;;
11998;SDS011;40817;51.520;9.954;2022-11-25T05:30:14;10.55;;;2.63;;
11998;SDS011;40817;51.520;9.954;2022-11-25T05:32:42;11.88;;;2.17;;
11998;SDS011;40817;51.520;9.954;2022-11-25T05:35:10;10.40;;;2.33;;
11998;SDS011;40817;51.520;9.954;2022-11-25T05:37:38;8.93;;;2.17;;
11998;SDS011;40817;51.520;9.954;2022-11-25T05:40:06;9.38;;;2.22;;
11998;SDS011;40817;51.520;9.954;2022-11-25T05:42:36;11.38;;;2.40;;
11998;SDS011;40817;51.520;9.954;2022-11-25T05:45:05;11.25;;;2.90;;
11998;SDS011;40817;51.520;9.954;2022-11-25T05:47:35;10.63;;;2.22;;
11998;SDS011;40817;51.520;9.954;2022-11-25T05:50:03;8.13;;;2.20;;
11998;SDS011;40817;51.520;9.954;2022-11-25T05:52:33;9.43;;;2.05;;
11998;SDS011;40817;51.520;9.954;2022-11-25T05:55:01;9.20;;;2.55;;
11998;SDS011;40817;51.520;9.954;2022-11-25T05:57:31;9.60;;;2.22;;
11998;SDS011;40817;51.520;9.954;2022-11-25T05:59:59;9.27;;;2.30;;
11998;SDS011;40817;51.520;9.954;2022-11-25T06:02:27;13.77;;;2.75;;
11998;SDS011;40817;51.520;9.954;2022-11-25T06:04:55;12.85;;;3.60;;
11998;SDS011;40817;51.520;9.954;2022-11-25T06:07:23;11.20;;;3.05;;
11998;SDS011;40817;51.520;9.954;2022-11-25T06:09:51;6.15;;;2.20;;
11998;SDS011;40817;51.520;9.954;2022-11-25T06:12:19;9.02;;;2.10;;
11998;SDS011;40817;51.520;9.954;2022-11-25T06:14:50;9.10;;;2.10;;
11998;SDS011;40817;51.520;9.954;2022-11-25T06:17:18;9.77;;;2.67;;
11998;SDS011;40817;51.520;9.954;2022-11-25T06:19:46;8.35;;;3.08;;
11998;SDS011;40817;51.520;9.954;2022-11-25T06:22:13;9.25;;;2.35;;
11998;SDS011;40817;51.520;9.954;2022-11-25T06:24:43;7.68;;;1.75;;
11998;SDS011;40817;51.520;9.954;2022-11-25T06:27:11;12.30;;;2.50;;
11998;SDS011;40817;51.520;9.954;2022-11-25T06:29:39;7.97;;;2.30;;
11998;SDS011;40817;51.520;9.954;2022-11-25T06:32:08;12.85;;;2.60;;
11998;SDS011;40817;51.520;9.954;2022-11-25T06:34:36;10.43;;;2.22;;
11998;SDS011;40817;51.520;9.954;2022-11-25T06:37:07;7.53;;;2.83;;
11998;SDS011;40817;51.520;9.954;2022-11-25T06:39:46;8.35;;;2.30;;
11998;SDS011;40817;51.520;9.954;2022-11-25T06:42:14;7.28;;;2.20;;
11998;SDS011;40817;51.520;9.954;2022-11-25T06:44:42;9.00;;;3.10;;
11998;SDS011;40817;51.520;9.954;2022-11-25T06:47:11;9.73;;;2.40;;
11998;SDS011;40817;51.520;9.954;2022-11-25T06:49:39;8.00;;;2.20;;
11998;SDS011;40817;51.520;9.954;2022-11-25T06:52:06;9.77;;;2.85;;
11998;SDS011;40817;51.520;9.954;2022-11-25T06:54:34;8.18;;;2.15;;
11998;SDS011;40817;51.520;9.954;2022-11-25T06:57:05;9.68;;;2.08;;
11998;SDS011;40817;51.520;9.954;2022-11-25T06:59:34;8.82;;;1.83;;
11998;SDS011;40817;51.520;9.954;2022-11-25T07:02:02;8.20;;;2.30;;
11998;SDS011;40817;51.520;9.954;2022-11-25T07:04:32;7.40;;;2.17;;
11998;SDS011;40817;51.520;9.954;2022-11-25T07:07:00;9.35;;;2.13;;
11998;SDS011;40817;51.520;9.954;2022-11-25T07:09:29;7.85;;;2.10;;
11998;SDS011;40817;51.520;9.954;2022-11-25T07:11:57;7.50;;;2.10;;
11998;SDS011;40817;51.520;9.954;2022-11-25T07:14:25;8.00;;;2.47;;
11998;SDS011;40817;51.520;9.954;2022-11-25T07:16:53;12.43;;;2.53;;
11998;SDS011;40817;51.520;9.954;2022-11-25T07:19:21;12.02;;;2.55;;
11998;SDS011;40817;51.520;9.954;2022-11-25T07:21:50;9.65;;;2.55;;
11998;SDS011;40817;51.520;9.954;2022-11-25T07:24:18;12.90;;;3.42;;
11998;SDS011;40817;51.520;9.954;2022-11-25T07:26:46;6.72;;;2.15;;
11998;SDS011;40817;51.520;9.954;2022-11-25T07:29:14;12.15;;;2.50;;
11998;SDS011;40817;51.520;9.954;2022-11-25T07:31:42;7.80;;;1.80;;
11998;SDS011;40817;51.520;9.954;2022-11-25T07:34:12;7.50;;;2.20;;
11998;SDS011;40817;51.520;9.954;2022-11-25T07:36:43;7.18;;;2.35;;
11998;SDS011;40817;51.520;9.954;2022-11-25T07:39:14;8.07;;;2.13;;
11998;SDS011;40817;51.520;9.954;2022-11-25T07:41:47;11.02;;;3.10;;
11998;SDS011;40817;51.520;9.954;2022-11-25T07:44:16;7.30;;;2.30;;
11998;SDS011;40817;51.520;9.954;2022-11-25T07:46:45;8.77;;;2.10;;
11998;SDS011;40817;51.520;9.954;2022-11-25T07:49:14;10.23;;;2.65;;
11998;SDS011;40817;51.520;9.954;2022-11-25T07:51:46;8.80;;;2.47;;
11998;SDS011;40817;51.520;9.954;2022-11-25T07:54:19;7.55;;;2.45;;
11998;SDS011;40817;51.520;9.954;2022-11-25T07:56:48;5.85;;;2.30;;
11998;SDS011;40817;51.520;9.954;2022-11-25T07:59:17;12.45;;;2.58;;
11998;SDS011;40817;51.520;9.954;2022-11-25T08:01:48;11.90;;;3.80;;
11998;SDS011;40817;51.520;9.954;2022-11-25T08:04:16;6.90;;;2.55;;
11998;SDS011;40817;51.520;9.954;2022-11-25T08:06:46;9.80;;;2.45;;
11998;SDS011;40817;51.520;9.954;2022-11-25T08:09:17;5.93;;;2.10;;
11998;SDS011;40817;51.520;9.954;2022-11-25T08:11:49;7.70;;;2.30;;
11998;SDS011;40817;51.520;9.954;2022-11-25T08:14:18;8.90;;;2.72;;
11998;SDS011;40817;51.520;9.954;2022-11-25T08:16:46;8.45;;;2.50;;
11998;SDS011;40817;51.520;9.954;2022-11-25T08:19:14;6.13;;;2.08;;
11998;SDS011;40817;51.520;9.954;2022-11-25T08:21:44;9.15;;;2.40;;
11998;SDS011;40817;51.520;9.954;2022-11-25T08:24:13;8.68;;;3.03;;
11998;SDS011;40817;51.520;9.954;2022-11-25T08:26:46;11.13;;;2.47;;
11998;SDS011;40817;51.520;9.954;2022-11-25T08:29:16;6.65;;;2.30;;
11998;SDS011;40817;51.520;9.954;2022-11-25T08:31:45;8.15;;;2.40;;
11998;SDS011;40817;51.520;9.954;2022-11-25T08:34:15;7.15;;;2.08;;
11998;SDS011;40817;51.520;9.954;2022-11-25T08:36:47;4.65;;;1.83;;
11998;SDS011;40817;51.520;9.954;2022-11-25T08:39:15;7.90;;;1.90;;
11998;SDS011;40817;51.520;9.954;2022-11-25T08:41:46;7.13;;;1.98;;
11998;SDS011;40817;51.520;9.954;2022-11-25T08:44:14;7.18;;;2.28;;
11998;SDS011;40817;51.520;9.954;2022-11-25T08:46:42;9.60;;;2.53;;
11998;SDS011;40817;51.520;9.954;2022-11-25T08:49:10;7.13;;;2.78;;
11998;SDS011;40817;51.520;9.954;2022-11-25T08:51:41;8.25;;;2.85;;
11998;SDS011;40817;51.520;9.954;2022-11-25T08:54:09;5.68;;;1.85;;
11998;SDS011;40817;51.520;9.954;2022-11-25T08:56:37;4.90;;;2.00;;
11998;SDS011;40817;51.520;9.954;2022-11-25T08:59:06;5.80;;;2.15;;
11998;SDS011;40817;51.520;9.954;2022-11-25T09:01:34;9.88;;;2.28;;
11998;SDS011;40817;51.520;9.954;2022-11-25T09:04:02;6.22;;;1.90;;
11998;SDS011;40817;51.520;9.954;2022-11-25T09:06:30;8.68;;;2.20;;
11998;SDS011;40817;51.520;9.954;2022-11-25T09:08:58;9.27;;;2.80;;
11998;SDS011;40817;51.520;9.954;2022-11-25T09:11:26;6.53;;;2.35;;
11998;SDS011;40817;51.520;9.954;2022-11-25T09:13:54;6.07;;;1.88;;
11998;SDS011;40817;51.520;9.954;2022-11-25T09:16:23;7.60;;;1.70;;
11998;SDS011;40817;51.520;9.954;2022-11-25T09:18:53;6.93;;;1.90;;
11998;SDS011;40817;51.520;9.954;2022-11-25T09:21:21;7.90;;;2.17;;
11998;SDS011;40817;51.520;9.954;2022-11-25T09:23:51;5.13;;;2.00;;
11998;SDS011;40817;51.520;9.954;2022-11-25T09:26:21;8.43;;;2.15;;
11998;SDS011;40817;51.520;9.954;2022-11-25T09:28:51;8.23;;;2.45;;
11998;SDS011;40817;51.520;9.954;2022-11-25T09:31:20;4.75;;;1.92;;
11998;SDS011;40817;51.520;9.954;2022-11-25T09:33:50;5.43;;;2.03;;
11998;SDS011;40817;51.520;9.954;2022-11-25T09:36:18;11.82;;;2.05;;
11998;SDS011;40817;51.520;9.954;2022-11-25T09:38:48;7.18;;;2.10;;
11998;SDS011;40817;51.520;9.954;2022-11-25T09:41:19;9.57;;;2.05;;
11998;SDS011;40817;51.520;9.954;2022-11-25T09:44:33;7.00;;;1.73;;
11998;SDS011;40817;51.520;9.954;2022-11-25T09:47:42;7.57;;;2.40;;
11998;SDS011;40817;51.520;9.954;2022-11-25T09:50:26;6.07;;;2.00;;
11998;SDS011;40817;51.520;9.954;2022-11-25T09:53:10;5.93;;;1.63;;
11998;SDS011;40817;51.520;9.954;2022-11-25T09:55:54;5.85;;;1.85;;
11998;SDS011;40817;51.520;9.954;2022-11-25T09:58:31;9.55;;;2.30;;
11998;SDS011;40817;51.520;9.954;2022-11-25T10:01:03;10.25;;;3.40;;
11998;SDS011;40817;51.520;9.954;2022-11-25T10:03:42;10.73;;;2.55;;
11998;SDS011;40817;51.520;9.954;2022-11-25T10:06:16;7.63;;;1.85;;
11998;SDS011;40817;51.520;9.954;2022-11-25T10:08:49;8.80;;;2.47;;
11998;SDS011;40817;51.520;9.954;2022-11-25T10:11:25;8.18;;;2.05;;
11998;SDS011;40817;51.520;9.954;2022-11-25T10:16:44;5.13;;;1.70;;
11998;SDS011;40817;51.520;9.954;2022-11-25T10:19:22;5.82;;;2.00;;
11998;SDS011;40817;51.520;9.954;2022-11-25T10:22:14;7.07;;;1.98;;
11998;SDS011;40817;51.520;9.954;2022-11-25T10:24:50;8.15;;;2.13;;
11998;SDS011;40817;51.520;9.954;2022-11-25T10:27:24;7.38;;;2.35;;
11998;SDS011;40817;51.520;9.954;2022-11-25T10:30:12;8.75;;;2.20;;
11998;SDS011;40817;51.520;9.954;2022-11-25T10:32:48;5.07;;;1.98;;
11998;SDS011;40817;51.520;9.954;2022-11-25T10:35:31;8.75;;;2.63;;
11998;SDS011;40817;51.520;9.954;2022-11-25T10:38:06;6.47;;;1.65;;
11998;SDS011;40817;51.520;9.954;2022-11-25T10:40:41;8.23;;;2.15;;
11998;SDS011;40817;51.520;9.954;2022-11-25T10:43:13;5.95;;;2.45;;
11998;SDS011;40817;51.520;9.954;2022-11-25T10:45:44;6.97;;;1.77;;
11998;SDS011;40817;51.520;9.954;2022-11-25T10:48:27;8.38;;;1.90;;
11998;SDS011;40817;51.520;9.954;2022-11-25T10:51:19;4.25;;;1.90;;
11998;SDS011;40817;51.520;9.954;2022-11-25T10:54:13;8.27;;;2.17;;
11998;SDS011;40817;51.520;9.954;2022-11-25T10:56:47;6.10;;;3.05;;
11998;SDS011;40817;51.520;9.954;2022-11-25T10:59:20;7.88;;;2.03;;
11998;SDS011;40817;51.520;9.954;2022-11-25T11:02:11;7.97;;;2.20;;
11998;SDS011;40817;51.520;9.954;2022-11-25T11:04:50;8.18;;;1.88;;
11998;SDS011;40817;51.520;9.954;2022-11-25T11:07:25;8.00;;;2.00;;
11998;SDS011;40817;51.520;9.954;2022-11-25T11:12:54;7.85;;;2.00;;
11998;SDS011;40817;51.520;9.954;2022-11-25T11:15:26;8.20;;;2.10;;
11998;SDS011;40817;51.520;9.954;2022-11-25T11:17:58;9.10;;;2.67;;
11998;SDS011;40817;51.520;9.954;2022-11-25T11:20:46;9.15;;;2.58;;
11998;SDS011;40817;51.520;9.954;2022-11-25T11:23:16;5.78;;;2.40;;
11998;SDS011;40817;51.520;9.954;2022-11-25T11:25:54;8.18;;;2.28;;
11998;SDS011;40817;51.520;9.954;2022-11-25T11:28:28;5.30;;;2.25;;
11998;SDS011;40817;51.520;9.954;2022-11-25T11:31:06;9.57;;;2.55;;
11998;SDS011;40817;51.520;9.954;2022-11-25T11:33:47;6.25;;;2.65;;
11998;SDS011;40817;51.520;9.954;2022-11-25T11:36:28;6.72;;;2.22;;
11998;SDS011;40817;51.520;9.954;2022-11-25T11:39:14;12.18;;;2.70;;
11998;SDS011;40817;51.520;9.954;2022-11-25T11:42:08;9.65;;;2.63;;
11998;SDS011;40817;51.520;9.954;2022-11-25T11:44:51;6.35;;;2.35;;
11998;SDS011;40817;51.520;9.954;2022-11-25T11:47:37;7.90;;;2.25;;
11998;SDS011;40817;51.520;9.954;2022-11-25T11:50:25;10.18;;;2.45;;
11998;SDS011;40817;51.520;9.954;2022-11-25T11:53:01;8.90;;;2.80;;
11998;SDS011;40817;51.520;9.954;2022-11-25T11:55:49;7.60;;;2.50;;
11998;SDS011;40817;51.520;9.954;2022-11-25T11:58:36;6.63;;;2.00;;
11998;SDS011;40817;51.520;9.954;2022-11-25T12:01:27;7.28;;;2.60;;
11998;SDS011;40817;51.520;9.954;2022-11-25T12:04:15;7.95;;;2.67;;
11998;SDS011;40817;51.520;9.954;2022-11-25T12:06:52;9.95;;;2.72;;
11998;SDS011;40817;51.520;9.954;2022-11-25T12:09:30;7.38;;;2.15;;
11998;SDS011;40817;51.520;9.954;2022-11-25T12:12:05;5.55;;;2.00;;
11998;SDS011;40817;51.520;9.954;2022-11-25T12:14:42;4.93;;;2.22;;
11998;SDS011;40817;51.520;9.954;2022-11-25T12:17:16;7.28;;;2.05;;
11998;SDS011;40817;51.520;9.954;2022-11-25T12:22:30;9.35;;;2.83;;
11998;SDS011;40817;51.520;9.954;2022-11-25T12:25:05;7.05;;;3.05;;
11998;SDS011;40817;51.520;9.954;2022-11-25T12:27:40;5.97;;;2.80;;
11998;SDS011;40817;51.520;9.954;2022-11-25T12:30:16;9.35;;;2.40;;
11998;SDS011;40817;51.520;9.954;2022-11-25T12:32:50;10.13;;;2.75;;
11998;SDS011;40817;51.520;9.954;2022-11-25T12:35:35;6.95;;;2.60;;
11998;SDS011;40817;51.520;9.954;2022-11-25T12:38:19;11.85;;;3.40;;
11998;SDS011;40817;51.520;9.954;2022-11-25T12:41:04;8.85;;;2.80;;
11998;SDS011;40817;51.520;9.954;2022-11-25T12:43:49;7.20;;;3.40;;
11998;SDS011;40817;51.520;9.954;2022-11-25T12:46:27;8.90;;;3.28;;
11998;SDS011;40817;51.520;9.954;2022-11-25T12:51:37;7.22;;;2.70;;
11998;SDS011;40817;51.520;9.954;2022-11-25T13:01:15;7.82;;;2.88;;
11998;SDS011;40817;51.520;9.954;2022-11-25T13:07:39;9.20;;;3.08;;
11998;SDS011;40817;51.520;9.954;2022-11-25T13:10:34;8.82;;;3.63;;
11998;SDS011;40817;51.520;9.954;2022-11-25T13:13:31;7.13;;;3.03;;
11998;SDS011;40817;51.520;9.954;2022-11-25T13:16:15;6.15;;;2.60;;
11998;SDS011;40817;51.520;9.954;2022-11-25T13:18:46;6.78;;;2.90;;
11998;SDS011;40817;51.520;9.954;2022-11-25T13:21:14;6.40;;;2.20;;
11998;SDS011;40817;51.520;9.954;2022-11-25T13:23:46;6.38;;;2.58;;
11998;SDS011;40817;51.520;9.954;2022-11-25T13:32:34;9.88;;;2.65;;
11998;SDS011;40817;51.520;9.954;2022-11-25T13:38:33;6.60;;;2.47;;
11998;SDS011;40817;51.520;9.954;2022-11-25T13:41:33;8.63;;;2.95;;
11998;SDS011;40817;51.520;9.954;2022-11-25T13:44:12;4.93;;;2.45;;
11998;SDS011;40817;51.520;9.954;2022-11-25T13:46:53;9.65;;;3.78;;
11998;SDS011;40817;51.520;9.954;2022-11-25T13:49:25;7.15;;;2.95;;
11998;SDS011;40817;51.520;9.954;2022-11-25T13:52:05;4.57;;;2.65;;
11998;SDS011;40817;51.520;9.954;2022-11-25T13:54:59;4.47;;;2.63;;
11998;SDS011;40817;51.520;9.954;2022-11-25T13:57:33;8.32;;;3.20;;
11998;SDS011;40817;51.520;9.954;2022-11-25T14:00:05;5.85;;;2.60;;
11998;SDS011;40817;51.520;9.954;2022-11-25T14:09:20;6.32;;;2.67;;
11998;SDS011;40817;51.520;9.954;2022-11-25T14:12:09;8.60;;;3.45;;
11998;SDS011;40817;51.520;9.954;2022-11-25T14:15:10;9.73;;;3.83;;
11998;SDS011;40817;51.520;9.954;2022-11-25T14:18:25;8.18;;;3.40;;
11998;SDS011;40817;51.520;9.954;2022-11-25T14:21:39;7.38;;;3.80;;
11998;SDS011;40817;51.520;9.954;2022-11-25T14:24:34;8.40;;;3.03;;
11998;SDS011;40817;51.520;9.954;2022-11-25T14:27:11;6.90;;;3.20;;
11998;SDS011;40817;51.520;9.954;2022-11-25T14:29:44;6.53;;;2.47;;
11998;SDS011;40817;51.520;9.954;2022-11-25T14:32:18;7.97;;;3.78;;
11998;SDS011;40817;51.520;9.954;2022-11-25T14:34:55;6.80;;;3.22;;
11998;SDS011;40817;51.520;9.954;2022-11-25T14:37:32;7.28;;;4.25;;
11998;SDS011;40817;51.520;9.954;2022-11-25T14:40:11;8.65;;;3.33;;
11998;SDS011;40817;51.520;9.954;2022-11-25T14:42:46;9.93;;;3.60;;
11998;SDS011;40817;51.520;9.954;2022-11-25T14:45:20;9.20;;;3.05;;
11998;SDS011;40817;51.520;9.954;2022-11-25T14:47:51;10.02;;;3.13;;
11998;SDS011;40817;51.520;9.954;2022-11-25T14:50:19;6.85;;;3.35;;
11998;SDS011;40817;51.520;9.954;2022-11-25T14:52:46;5.68;;;2.70;;
11998;SDS011;40817;51.520;9.954;2022-11-25T14:55:24;8.43;;;3.40;;
11998;SDS011;40817;51.520;9.954;2022-11-25T14:57:56;8.35;;;3.90;;
11998;SDS011;40817;51.520;9.954;2022-11-25T15:00:24;7.65;;;3.33;;
11998;SDS011;40817;51.520;9.954;2022-11-25T15:02:53;10.02;;;3.83;;
11998;SDS011;40817;51.520;9.954;2022-11-25T15:05:24;9.40;;;3.67;;
11998;SDS011;40817;51.520;9.954;2022-11-25T15:07:58;6.45;;;2.80;;
11998;SDS011;40817;51.520;9.954;2022-11-25T15:10:41;10.48;;;3.60;;
11998;SDS011;40817;51.520;9.954;2022-11-25T15:13:23;11.23;;;3.55;;
11998;SDS011;40817;51.520;9.954;2022-11-25T15:15:59;8.88;;;3.58;;
11998;SDS011;40817;51.520;9.954;2022-11-25T15:18:35;8.93;;;3.23;;
11998;SDS011;40817;51.520;9.954;2022-11-25T15:21:03;6.65;;;3.58;;
11998;SDS011;40817;51.520;9.954;2022-11-25T15:23:33;6.95;;;3.28;;
11998;SDS011;40817;51.520;9.954;2022-11-25T15:26:13;11.07;;;4.30;;
11998;SDS011;40817;51.520;9.954;2022-11-25T15:28:44;10.10;;;3.85;;
11998;SDS011;40817;51.520;9.954;2022-11-25T15:31:16;9.95;;;4.20;;
11998;SDS011;40817;51.520;9.954;2022-11-25T15:33:46;7.15;;;4.00;;
11998;SDS011;40817;51.520;9.954;2022-11-25T15:36:21;10.70;;;4.18;;
11998;SDS011;40817;51.520;9.954;2022-11-25T15:38:49;11.02;;;4.22;;
11998;SDS011;40817;51.520;9.954;2022-11-25T15:41:20;7.75;;;4.03;;
11998;SDS011;40817;51.520;9.954;2022-11-25T15:43:59;9.43;;;4.68;;
11998;SDS011;40817;51.520;9.954;2022-11-25T15:46:32;8.40;;;4.35;;
11998;SDS011;40817;51.520;9.954;2022-11-25T15:49:01;8.90;;;4.65;;
11998;SDS011;40817;51.520;9.954;2022-11-25T15:51:35;9.25;;;4.05;;
11998;SDS011;40817;51.520;9.954;2022-11-25T15:54:13;7.72;;;4.07;;
11998;SDS011;40817;51.520;9.954;2022-11-25T15:56:49;10.63;;;4.05;;